Time;durP1;ratioP1;P1;durP2;ratioP2;P2;SDS_P1;SDS_P2;PMS_P1;PMS_P2;Temp;Humidity;BMP_temperature;BMP_pressure;BME280_temperature;BME280_humidity;BME280_pressure;Samples;Min_cycle;Max_cycle;Signal;HPM_P1;HPM_P2
2021/06/02 00:03:54;;;;;;;14.83;5.23;;;14.30;99.90;;;;;;4935647;29;20460;-77
2021/06/02 00:06:24;;;;;;;5.43;4.20;;;14.20;99.90;;;;;;4936040;29;20897;-78
2021/06/02 00:08:54;;;;;;;5.73;5.13;;;14.10;99.90;;;;;;4936126;29;20406;-79
2021/06/02 00:11:20;;;;;;;7.90;4.67;;;14.10;99.90;;;;;;4934619;29;20479;-78
2021/06/02 00:13:46;;;;;;;8.93;5.17;;;14.00;99.90;;;;;;4935588;29;20542;-75
2021/06/02 00:16:12;;;;;;;9.97;5.40;;;13.90;99.90;;;;;;4935842;29;20461;-77
2021/06/02 00:18:38;;;;;;;7.67;4.77;;;13.90;99.90;;;;;;4950616;29;20428;-78
2021/06/02 00:21:06;;;;;;;6.43;4.33;;;13.80;99.90;;;;;;4934590;29;20536;-79
2021/06/02 00:23:32;;;;;;;11.50;5.27;;;13.80;99.90;;;;;;4934168;29;20213;-78
2021/06/02 00:26:00;;;;;;;7.10;4.67;;;13.70;99.90;;;;;;4950849;29;20480;-77
2021/06/02 00:28:26;;;;;;;7.30;5.00;;;13.70;99.90;;;;;;4934671;29;20484;-76
2021/06/02 00:30:52;;;;;;;10.00;4.73;;;13.60;99.90;;;;;;4935932;29;20407;-75
2021/06/02 00:33:18;;;;;;;6.13;4.03;;;13.60;99.90;;;;;;4934987;29;20496;-78
2021/06/02 00:35:44;;;;;;;6.57;5.10;;;13.60;99.90;;;;;;4939353;29;20467;-77
2021/06/02 00:38:12;;;;;;;8.17;6.03;;;13.50;99.90;;;;;;4939259;29;20433;-76
2021/06/02 00:40:45;;;;;;;7.70;4.83;;;13.50;99.90;;;;;;4937953;29;20217;-80
2021/06/02 00:43:14;;;;;;;8.17;4.90;;;13.40;99.90;;;;;;4938917;29;20414;-78
2021/06/02 00:45:40;;;;;;;6.50;4.57;;;13.40;99.90;;;;;;4937789;29;20457;-79
2021/06/02 00:48:05;;;;;;;7.33;4.70;;;13.40;99.90;;;;;;4939095;29;20426;-76
2021/06/02 00:50:31;;;;;;;11.33;6.00;;;13.30;99.90;;;;;;4937893;29;20969;-79
2021/06/02 00:52:57;;;;;;;10.80;6.43;;;13.30;99.90;;;;;;4938768;29;20432;-77
2021/06/02 00:55:23;;;;;;;10.43;5.90;;;13.20;99.90;;;;;;4937712;29;20197;-78
2021/06/02 00:57:52;;;;;;;7.37;5.20;;;13.20;99.90;;;;;;4937603;29;20436;-76
2021/06/02 01:00:18;;;;;;;13.30;5.77;;;13.10;99.90;;;;;;4937788;29;20598;-78
2021/06/02 01:02:51;;;;;;;9.07;5.40;;;13.10;99.90;;;;;;4953511;29;20496;-78
2021/06/02 01:05:20;;;;;;;12.30;5.60;;;13.00;99.90;;;;;;4939491;29;20437;-75
2021/06/02 01:07:50;;;;;;;8.60;5.80;;;12.90;99.90;;;;;;4945048;29;20470;-77
2021/06/02 01:10:18;;;;;;;13.50;6.63;;;12.80;99.90;;;;;;4953881;29;20420;-80
2021/06/02 01:12:49;;;;;;;9.17;5.77;;;12.80;99.90;;;;;;4937378;29;20843;-77
2021/06/02 01:15:17;;;;;;;6.20;5.60;;;12.80;99.90;;;;;;4938866;29;20429;-79
2021/06/02 01:17:43;;;;;;;9.70;6.10;;;12.80;99.90;;;;;;4938806;29;20425;-77
2021/06/02 01:20:09;;;;;;;9.80;7.03;;;12.70;99.90;;;;;;4937395;29;20487;-77
2021/06/02 01:22:36;;;;;;;6.40;5.70;;;12.60;99.90;;;;;;4938615;29;20422;-78
2021/06/02 01:25:08;;;;;;;9.43;6.30;;;12.60;99.90;;;;;;4952872;29;20416;-78
2021/06/02 01:27:33;;;;;;;9.67;6.13;;;12.50;99.90;;;;;;4937168;29;20421;-77
2021/06/02 01:29:59;;;;;;;8.03;6.40;;;12.50;99.90;;;;;;4938302;29;20418;-76
2021/06/02 01:32:40;;;;;;;11.43;5.97;;;12.40;99.90;;;;;;4937051;29;20181;-77
2021/06/02 01:35:16;;;;;;;9.60;5.87;;;12.40;99.90;;;;;;4937943;29;20264;-77
2021/06/02 01:38:16;;;;;;;7.00;6.30;;;12.30;99.90;;;;;;4938247;29;20895;-78
2021/06/02 01:40:55;;;;;;;7.40;6.00;;;12.30;99.90;;;;;;4936936;29;20867;-78
2021/06/02 01:43:57;;;;;;;11.40;6.40;;;12.30;99.90;;;;;;4937771;29;20416;-77
2021/06/02 01:46:29;;;;;;;10.80;6.40;;;12.20;99.90;;;;;;4937439;29;20450;-80
2021/06/02 01:49:15;;;;;;;10.10;6.60;;;12.10;99.90;;;;;;4936711;29;20431;-77
2021/06/02 01:52:18;;;;;;;9.73;6.90;;;12.10;99.90;;;;;;4936812;29;20811;-79
2021/06/02 01:55:06;;;;;;;11.90;6.50;;;12.00;99.90;;;;;;4937628;29;20476;-76
2021/06/02 01:57:51;;;;;;;8.40;7.00;;;12.10;99.90;;;;;;4937935;29;20421;-76
2021/06/02 02:00:41;;;;;;;8.80;5.90;;;12.10;99.90;;;;;;4937512;29;20431;-79
2021/06/02 02:03:41;;;;;;;8.60;6.30;;;12.00;99.90;;;;;;4937573;29;20421;-77
2021/06/02 02:06:31;;;;;;;7.90;6.33;;;12.00;99.90;;;;;;4919987;29;20618;-80
2021/06/02 02:09:18;;;;;;;7.93;6.30;;;11.90;99.90;;;;;;4937676;29;20409;-80
2021/06/02 02:11:44;;;;;;;10.23;6.93;;;11.80;99.90;;;;;;4937759;29;20452;-76
2021/06/02 02:14:28;;;;;;;7.93;6.83;;;11.70;99.90;;;;;;4937078;29;20452;-77
2021/06/02 02:17:31;;;;;;;14.27;6.83;;;11.70;99.90;;;;;;4936242;29;20169;-78
2021/06/02 02:20:12;;;;;;;8.67;6.00;;;11.70;99.90;;;;;;4936274;29;20407;-77
2021/06/02 02:22:56;;;;;;;9.60;6.30;;;11.70;99.90;;;;;;4937091;29;20459;-77
2021/06/02 02:25:52;;;;;;;8.97;8.07;;;11.60;99.90;;;;;;4937164;29;20795;-75
2021/06/02 02:28:23;;;;;;;8.57;6.93;;;11.50;99.90;;;;;;4936031;29;20421;-77
2021/06/02 02:31:25;;;;;;;7.63;6.30;;;11.50;99.90;;;;;;4937190;29;20409;-77
2021/06/02 02:34:25;;;;;;;9.40;6.40;;;11.50;99.90;;;;;;4936639;29;20503;-78
2021/06/02 02:36:57;;;;;;;8.70;6.80;;;11.50;99.90;;;;;;4928862;29;20409;-75
2021/06/02 02:39:55;;;;;;;10.43;7.07;;;11.50;99.90;;;;;;4935708;29;20425;-77
2021/06/02 02:42:40;;;;;;;11.30;6.63;;;11.40;99.90;;;;;;4928021;29;20472;-78
2021/06/02 02:45:23;;;;;;;9.40;7.20;;;11.40;99.90;;;;;;4936707;29;20437;-81
2021/06/02 02:48:32;;;;;;;8.80;7.43;;;11.40;99.90;;;;;;4935696;29;21013;-78
2021/06/02 02:51:11;;;;;;;12.33;7.33;;;11.40;99.90;;;;;;4936830;29;20482;-78
2021/06/02 02:54:08;;;;;;;9.53;7.07;;;11.40;99.90;;;;;;4936538;29;20433;-77
2021/06/02 02:56:45;;;;;;;14.40;8.80;;;11.40;99.90;;;;;;4935876;29;20445;-76
2021/06/02 02:59:39;;;;;;;10.67;7.63;;;11.20;99.90;;;;;;4936713;29;20388;-77
2021/06/02 03:02:15;;;;;;;12.60;8.80;;;11.10;99.90;;;;;;4935790;29;20556;-80
2021/06/02 03:04:48;;;;;;;13.23;8.53;;;11.10;99.90;;;;;;4936112;29;20445;-77
2021/06/02 03:07:15;;;;;;;13.70;8.63;;;11.10;99.90;;;;;;4936547;29;20512;-80
2021/06/02 03:09:54;;;;;;;15.30;8.87;;;11.10;99.90;;;;;;4936651;29;20420;-76
2021/06/02 03:13:00;;;;;;;10.40;8.50;;;11.10;99.90;;;;;;4936450;29;20417;-79
2021/06/02 03:15:42;;;;;;;10.43;7.10;;;11.10;99.90;;;;;;4936516;29;20413;-77
2021/06/02 03:18:13;;;;;;;10.33;7.47;;;11.10;99.90;;;;;;4936626;29;20500;-77
2021/06/02 03:21:01;;;;;;;10.00;7.27;;;11.00;99.90;;;;;;4936634;29;20456;-76
2021/06/02 03:23:33;;;;;;;14.40;8.87;;;11.00;99.90;;;;;;4935236;29;20581;-79
2021/06/02 03:26:10;;;;;;;12.10;9.00;;;11.00;99.90;;;;;;4935031;29;20430;-75
2021/06/02 03:29:03;;;;;;;9.10;7.60;;;10.90;99.90;;;;;;4936483;29;20475;-80
2021/06/02 03:31:46;;;;;;;11.60;8.17;;;11.00;99.90;;;;;;4935085;29;20457;-79
2021/06/02 03:34:22;;;;;;;8.50;7.60;;;11.00;99.90;;;;;;4934652;29;20996;-76
2021/06/02 03:37:23;;;;;;;8.87;7.97;;;11.00;99.90;;;;;;4936158;29;20443;-76
2021/06/02 03:40:13;;;;;;;10.03;7.67;;;10.90;99.90;;;;;;4936299;29;20500;-77
2021/06/02 03:43:02;;;;;;;10.47;8.17;;;10.90;99.90;;;;;;4936099;29;20433;-78
2021/06/02 03:45:38;;;;;;;11.17;8.07;;;10.90;99.90;;;;;;4936197;29;20493;-77
2021/06/02 03:48:16;;;;;;;12.80;8.87;;;10.90;99.90;;;;;;4936183;29;20396;-80
2021/06/02 03:50:47;;;;;;;8.30;7.57;;;10.90;99.90;;;;;;4936100;29;20413;-77
2021/06/02 03:53:19;;;;;;;12.00;7.40;;;10.90;99.90;;;;;;4935553;29;20414;-77
2021/06/02 03:55:45;;;;;;;10.90;9.40;;;10.90;99.90;;;;;;4935990;29;20425;-77
2021/06/02 03:58:40;;;;;;;14.10;8.77;;;10.90;99.90;;;;;;4934765;29;20425;-78
2021/06/02 04:01:34;;;;;;;12.40;8.83;;;10.90;99.90;;;;;;4934471;29;20213;-79
2021/06/02 04:04:19;;;;;;;10.93;8.40;;;10.80;99.90;;;;;;4935644;29;20444;-79
2021/06/02 04:07:18;;;;;;;10.77;7.83;;;10.90;99.90;;;;;;4936252;29;20953;-79
2021/06/02 04:10:03;;;;;;;10.57;8.97;;;10.90;99.90;;;;;;4938350;29;20956;-78
2021/06/02 04:12:41;;;;;;;9.57;8.67;;;11.00;99.90;;;;;;4939893;29;20464;-80
2021/06/02 04:15:08;;;;;;;8.67;7.77;;;10.90;99.90;;;;;;4939334;29;20950;-76
2021/06/02 04:17:35;;;;;;;12.00;7.50;;;10.90;99.90;;;;;;4939683;29;20417;-76
2021/06/02 04:20:04;;;;;;;9.50;8.50;;;10.90;99.90;;;;;;4939663;29;20462;-80
2021/06/02 04:22:32;;;;;;;8.87;7.90;;;10.90;99.90;;;;;;4939525;29;20546;-76
2021/06/02 04:25:01;;;;;;;9.87;8.67;;;10.90;99.90;;;;;;4939264;29;20532;-75
2021/06/02 04:27:27;;;;;;;14.43;8.87;;;10.90;99.90;;;;;;4939442;29;20416;-76
2021/06/02 04:30:01;;;;;;;9.07;7.90;;;10.90;99.90;;;;;;4939568;29;20420;-79
2021/06/02 04:32:37;;;;;;;9.53;8.53;;;10.90;99.90;;;;;;4939761;29;20453;-77
2021/06/02 04:35:04;;;;;;;12.03;9.00;;;11.00;99.90;;;;;;4938883;29;20462;-79
2021/06/02 04:37:31;;;;;;;9.17;8.27;;;11.10;99.90;;;;;;4939045;29;20494;-77
2021/06/02 04:39:57;;;;;;;8.83;7.93;;;11.10;99.90;;;;;;4938301;29;20436;-79
2021/06/02 04:42:23;;;;;;;10.97;9.10;;;11.20;99.90;;;;;;4937932;29;21036;-75
2021/06/02 04:44:49;;;;;;;10.97;9.13;;;11.30;99.90;;;;;;4921840;29;20492;-77
2021/06/02 04:47:17;;;;;;;9.67;8.70;;;11.40;99.90;;;;;;4953958;29;20178;-77
2021/06/02 04:50:15;;;;;;;8.50;7.60;;;11.40;99.90;;;;;;4954491;29;20427;-77
2021/06/02 04:53:20;;;;;;;8.40;7.60;;;11.50;99.90;;;;;;4942416;29;20409;-76
2021/06/02 04:56:07;;;;;;;8.53;7.73;;;11.60;99.90;;;;;;4931443;29;20448;-79
2021/06/02 04:59:10;;;;;;;9.40;6.80;;;11.80;99.90;;;;;;4939344;29;20412;-79
2021/06/02 05:02:01;;;;;;;12.40;7.30;;;11.80;99.90;;;;;;4938597;29;20838;-79
2021/06/02 05:05:00;;;;;;;9.37;7.50;;;12.00;99.90;;;;;;4938331;29;20431;-79
2021/06/02 05:07:54;;;;;;;10.00;8.67;;;12.10;99.90;;;;;;4919793;29;20425;-77
2021/06/02 05:10:56;;;;;;;9.90;8.50;;;12.10;99.90;;;;;;4919852;29;20433;-80
2021/06/02 05:14:09;;;;;;;8.67;7.87;;;12.10;99.90;;;;;;4919429;29;20779;-79
2021/06/02 05:17:12;;;;;;;7.43;6.70;;;12.20;99.90;;;;;;4919782;29;20446;-79
2021/06/02 05:20:04;;;;;;;7.90;7.10;;;12.20;99.90;;;;;;4919043;29;20442;-76
2021/06/02 05:22:49;;;;;;;7.77;7.07;;;12.30;99.90;;;;;;4919838;29;20842;-80
2021/06/02 05:25:36;;;;;;;8.80;7.90;;;12.40;99.90;;;;;;4919305;29;20936;-77
2021/06/02 05:28:38;;;;;;;10.90;9.00;;;12.60;99.90;;;;;;4919692;29;20414;-79
2021/06/02 05:31:41;;;;;;;10.97;8.10;;;12.80;99.90;;;;;;4919378;29;20420;-75
2021/06/02 05:34:37;;;;;;;8.93;7.00;;;12.90;99.90;;;;;;4918743;29;20851;-76
2021/06/02 05:37:23;;;;;;;9.60;8.60;;;13.00;99.90;;;;;;4919135;29;20477;-76
2021/06/02 05:40:08;;;;;;;9.73;7.80;;;13.10;99.90;;;;;;4919150;29;20957;-79
2021/06/02 05:43:11;;;;;;;9.10;7.37;;;13.30;99.90;;;;;;4933822;29;20465;-79
2021/06/02 05:46:28;;;;;;;8.00;7.00;;;13.40;99.90;;;;;;4919118;29;20725;-77
2021/06/02 05:49:18;;;;;;;8.80;7.20;;;13.60;99.90;;;;;;4902739;29;20427;-77
2021/06/02 05:52:02;;;;;;;8.23;7.43;;;13.80;99.90;;;;;;4933732;29;20620;-79
2021/06/02 05:54:46;;;;;;;9.10;7.53;;;13.90;99.90;;;;;;4918626;29;20800;-78
2021/06/02 05:57:18;;;;;;;15.53;7.83;;;14.00;99.90;;;;;;4933579;29;20423;-77
2021/06/02 06:00:06;;;;;;;11.60;7.47;;;14.20;99.90;;;;;;4918852;29;20392;-77
2021/06/02 06:02:37;;;;;;;8.47;7.13;;;14.40;99.90;;;;;;4933280;29;20469;-79
2021/06/02 06:05:25;;;;;;;12.33;7.20;;;14.50;99.90;;;;;;4918573;29;20424;-78
2021/06/02 06:08:02;;;;;;;10.90;7.87;;;14.70;99.90;;;;;;4918949;29;20426;-78
2021/06/02 06:10:46;;;;;;;15.20;8.80;;;14.70;99.90;;;;;;4935297;29;20437;-79
2021/06/02 06:13:25;;;;;;;12.90;8.43;;;14.90;99.90;;;;;;4933292;29;20418;-78
2021/06/02 06:16:02;;;;;;;12.10;8.53;;;15.10;99.90;;;;;;4919104;29;20400;-79
2021/06/02 06:19:05;;;;;;;16.77;10.47;;;15.30;99.90;;;;;;4918515;29;20410;-78
2021/06/02 06:22:03;;;;;;;15.43;7.80;;;15.50;99.90;;;;;;4918646;29;20458;-77
2021/06/02 06:24:43;;;;;;;13.07;7.03;;;15.60;99.90;;;;;;4904669;29;20436;-78
2021/06/02 06:27:28;;;;;;;11.53;7.60;;;15.90;99.90;;;;;;4931115;29;20401;-77
2021/06/02 06:30:29;;;;;;;13.63;7.10;;;16.10;99.90;;;;;;4934625;29;20405;-79
2021/06/02 06:32:56;;;;;;;7.10;5.73;;;16.20;99.90;;;;;;4936728;29;20500;-79
2021/06/02 06:35:23;;;;;;;10.80;5.77;;;16.40;99.90;;;;;;4936798;29;20841;-79
2021/06/02 06:37:52;;;;;;;7.67;3.90;;;16.60;99.90;;;;;;4937198;29;20396;-78
2021/06/02 06:40:24;;;;;;;4.87;4.07;;;16.70;99.90;;;;;;4936805;29;20415;-79
2021/06/02 06:42:53;;;;;;;4.17;3.77;;;16.90;99.90;;;;;;4937069;29;20396;-79
2021/06/02 06:45:19;;;;;;;3.73;3.20;;;17.10;99.90;;;;;;4935590;29;20470;-78
2021/06/02 06:47:48;;;;;;;5.40;3.20;;;17.30;99.90;;;;;;4936867;29;20492;-76
2021/06/02 06:50:15;;;;;;;5.17;3.33;;;17.40;99.90;;;;;;4936995;29;20257;-78
2021/06/02 06:52:48;;;;;;;4.23;3.70;;;17.40;99.90;;;;;;4937424;29;20418;-80
2021/06/02 06:55:14;;;;;;;5.37;3.77;;;17.50;99.90;;;;;;4936089;29;20944;-78
2021/06/02 06:57:40;;;;;;;5.03;3.33;;;17.70;99.90;;;;;;4951725;29;20388;-79
2021/06/02 07:00:09;;;;;;;4.40;3.50;;;17.80;99.90;;;;;;4936746;29;20392;-79
2021/06/02 07:02:37;;;;;;;6.13;4.00;;;17.90;99.90;;;;;;4936287;29;20461;-80
2021/06/02 07:05:05;;;;;;;7.43;3.93;;;18.00;99.90;;;;;;4935257;29;20453;-79
2021/06/02 07:07:34;;;;;;;4.23;3.80;;;18.20;99.90;;;;;;4936790;29;20500;-80
2021/06/02 07:10:00;;;;;;;7.97;3.80;;;18.30;99.90;;;;;;4936838;29;20750;-78
2021/06/02 07:12:26;;;;;;;4.97;3.03;;;18.40;99.90;;;;;;4936551;29;20396;-78
2021/06/02 07:14:53;;;;;;;4.10;3.53;;;18.40;99.90;;;;;;4934826;29;20419;-78
2021/06/02 07:17:23;;;;;;;3.57;3.10;;;18.40;99.90;;;;;;4936670;29;20403;-79
2021/06/02 07:19:57;;;;;;;8.43;4.03;;;18.50;99.90;;;;;;4936587;29;20998;-77
2021/06/02 07:22:24;;;;;;;6.50;3.40;;;18.70;99.90;;;;;;4936394;29;20452;-77
2021/06/02 07:24:57;;;;;;;5.50;3.80;;;18.80;99.90;;;;;;4936021;29;20654;-78
2021/06/02 07:27:24;;;;;;;6.13;4.63;;;18.90;99.90;;;;;;4936601;29;20784;-80
2021/06/02 07:29:50;;;;;;;9.77;4.20;;;19.00;99.90;;;;;;4936296;29;20420;-79
2021/06/02 07:32:16;;;;;;;3.50;2.70;;;19.20;99.90;;;;;;4936281;29;20392;-78
2021/06/02 07:34:42;;;;;;;5.97;3.27;;;19.30;99.90;;;;;;4935823;29;20255;-79
2021/06/02 07:37:07;;;;;;;5.20;3.63;;;19.40;99.90;;;;;;4936257;29;20421;-79
2021/06/02 07:39:33;;;;;;;6.60;3.07;;;19.40;99.90;;;;;;4950991;29;20189;-79
2021/06/02 07:41:59;;;;;;;6.60;3.00;;;19.60;99.90;;;;;;4950804;29;20209;-79
2021/06/02 07:44:24;;;;;;;7.77;3.20;;;19.60;99.90;;;;;;4935172;29;20189;-79
2021/06/02 07:46:50;;;;;;;4.37;3.30;;;19.80;99.90;;;;;;4950721;29;20181;-79
2021/06/02 07:49:15;;;;;;;6.47;2.70;;;20.00;99.90;;;;;;4950745;29;20193;-79
2021/06/02 07:51:41;;;;;;;6.20;3.57;;;20.10;99.90;;;;;;4936114;29;20253;-79
2021/06/02 07:54:07;;;;;;;4.47;2.53;;;20.30;99.90;;;;;;4935631;29;20749;-79
2021/06/02 07:56:33;;;;;;;4.63;2.40;;;20.40;99.90;;;;;;4936095;29;20188;-79
2021/06/02 07:58:59;;;;;;;6.07;2.90;;;20.50;99.90;;;;;;4935666;29;20176;-79
2021/06/02 08:01:25;;;;;;;3.83;2.90;;;20.70;99.90;;;;;;4950553;29;20477;-80
2021/06/02 08:03:50;;;;;;;4.20;2.77;;;21.00;99.90;;;;;;4935601;29;20280;-79
2021/06/02 08:06:16;;;;;;;3.73;3.33;;;21.10;99.90;;;;;;4935837;29;20180;-80
2021/06/02 08:08:42;;;;;;;4.50;3.20;;;21.10;99.90;;;;;;4936076;29;20528;-79
2021/06/02 08:11:07;;;;;;;4.70;2.60;;;21.20;99.90;;;;;;4936183;29;20188;-78
2021/06/02 08:13:33;;;;;;;4.50;3.30;;;21.30;99.90;;;;;;4934967;29;20209;-80
2021/06/02 08:15:59;;;;;;;2.77;2.57;;;21.80;99.90;;;;;;4950846;29;20230;-77
2021/06/02 08:18:25;;;;;;;3.50;3.17;;;21.80;99.90;;;;;;4941027;29;20177;-76
2021/06/02 08:20:51;;;;;;;4.10;2.90;;;22.10;99.90;;;;;;4936238;29;20206;-76
2021/06/02 08:23:16;;;;;;;5.50;2.87;;;22.40;99.90;;;;;;4935719;29;20322;-76
2021/06/02 08:25:42;;;;;;;4.40;2.77;;;22.30;99.90;;;;;;4936126;29;20446;-77
2021/06/02 08:28:08;;;;;;;4.03;3.00;;;22.80;99.90;;;;;;4934615;29;20276;-76
2021/06/02 08:30:33;;;;;;;5.67;3.27;;;22.80;99.90;;;;;;4935670;29;20224;-79
2021/06/02 08:32:59;;;;;;;4.43;3.37;;;23.00;99.90;;;;;;4950236;29;20227;-77
2021/06/02 08:35:25;;;;;;;4.07;3.10;;;23.10;99.90;;;;;;4935477;29;20208;-77
2021/06/02 08:37:50;;;;;;;10.10;3.00;;;23.30;99.90;;;;;;4935569;29;20457;-77
2021/06/02 08:40:17;;;;;;;6.17;3.17;;;23.60;99.90;;;;;;4935569;29;20196;-78
2021/06/02 08:42:44;;;;;;;4.97;3.07;;;23.40;99.90;;;;;;4935385;29;20200;-77
2021/06/02 08:45:11;;;;;;;6.13;3.43;;;23.50;99.90;;;;;;4935083;29;20445;-78
2021/06/02 08:47:37;;;;;;;3.30;2.67;;;24.00;99.90;;;;;;4935547;29;20425;-76
2021/06/02 08:50:07;;;;;;;3.37;2.57;;;24.30;99.90;;;;;;4935615;29;20894;-78
2021/06/02 08:52:38;;;;;;;2.23;2.03;;;24.60;99.90;;;;;;4935594;29;20209;-80
2021/06/02 08:55:05;;;;;;;5.30;2.17;;;24.70;99.90;;;;;;4935927;29;20520;-81
2021/06/02 08:57:33;;;;;;;5.07;2.30;;;24.50;99.90;;;;;;4938936;29;20413;-83
2021/06/02 08:59:58;;;;;;;4.10;3.30;;;24.50;99.90;;;;;;4938926;29;20409;-81
2021/06/02 09:02:24;;;;;;;3.40;2.60;;;24.50;99.90;;;;;;4953709;29;20461;-81
2021/06/02 09:04:50;;;;;;;2.90;2.60;;;24.70;99.90;;;;;;4953378;29;20513;-83
2021/06/02 09:07:16;;;;;;;6.67;2.60;;;25.30;99.90;;;;;;4953522;29;20185;-83
2021/06/02 09:09:43;;;;;;;4.27;2.10;;;25.80;99.90;;;;;;4938765;29;20174;-82
2021/06/02 09:12:12;;;;;;;2.00;1.80;;;25.40;99.90;;;;;;4937461;29;20844;-78
2021/06/02 09:14:39;;;;;;;2.17;1.97;;;25.30;99.90;;;;;;4938546;29;20524;-83
2021/06/02 09:17:07;;;;;;;5.63;2.67;;;25.30;99.90;;;;;;4937458;29;20901;-80
2021/06/02 09:19:44;;;;;;;4.73;2.40;;;25.80;99.90;;;;;;4937485;29;20843;-80
2021/06/02 09:22:21;;;;;;;4.80;2.10;;;26.00;99.90;;;;;;4937190;29;20881;-82
2021/06/02 09:24:58;;;;;;;1.77;1.67;;;26.00;99.90;;;;;;4936954;29;20970;-82
2021/06/02 09:27:46;;;;;;;2.47;2.13;;;26.30;99.90;;;;;;4938429;29;20440;-79
2021/06/02 09:30:14;;;;;;;4.50;2.23;;;27.00;99.90;;;;;;4938407;29;20414;-79
2021/06/02 09:32:49;;;;;;;4.07;2.57;;;26.70;98.60;;;;;;4937125;29;20425;-81
2021/06/02 09:35:15;;;;;;;2.50;2.30;;;26.50;97.60;;;;;;4938530;29;20451;-82
2021/06/02 09:37:57;;;;;;;4.23;2.20;;;26.40;94.70;;;;;;4936864;29;20772;-80
2021/06/02 09:40:29;;;;;;;4.17;2.63;;;26.50;99.50;;;;;;4938487;29;20938;-81
2021/06/02 09:42:55;;;;;;;3.60;2.10;;;26.70;96.90;;;;;;4938131;29;20453;-80
2021/06/02 09:45:22;;;;;;;2.63;2.40;;;27.00;94.70;;;;;;4952894;29;20437;-80
2021/06/02 09:47:50;;;;;;;4.40;2.70;;;26.40;91.90;;;;;;4938232;29;20497;-81
2021/06/02 09:50:29;;;;;;;2.30;2.10;;;26.50;93.40;;;;;;4938140;29;20448;-83
2021/06/02 09:52:56;;;;;;;6.27;1.80;;;26.40;91.30;;;;;;4937829;29;20409;-80
2021/06/02 09:55:38;;;;;;;2.10;1.90;;;26.20;86.70;;;;;;4937910;29;20433;-79
2021/06/02 09:58:07;;;;;;;2.20;2.00;;;26.40;86.90;;;;;;4937861;29;20445;-79
2021/06/02 10:00:54;;;;;;;2.53;2.03;;;26.40;88.30;;;;;;4937856;29;20413;-82
2021/06/02 10:03:30;;;;;;;4.70;1.80;;;26.60;87.80;;;;;;4937257;29;20449;-80
2021/06/02 10:05:56;;;;;;;3.10;1.63;;;27.20;84.30;;;;;;4935879;29;20449;-81
2021/06/02 10:08:32;;;;;;;2.80;1.90;;;27.00;79.90;;;;;;4937580;29;20508;-78
2021/06/02 10:11:12;;;;;;;5.73;2.10;;;26.80;78.20;;;;;;4937885;29;20442;-82
2021/06/02 10:13:39;;;;;;;2.87;1.57;;;27.10;77.90;;;;;;4937540;29;20432;-82
2021/06/02 10:16:05;;;;;;;2.23;1.60;;;27.60;79.50;;;;;;4952638;29;20453;-78
2021/06/02 10:18:32;;;;;;;4.37;1.90;;;27.90;76.80;;;;;;4937423;29;20829;-82
2021/06/02 10:21:09;;;;;;;4.47;2.60;;;27.70;72.90;;;;;;4936093;29;20465;-80
2021/06/02 10:23:42;;;;;;;5.20;2.47;;;27.60;69.30;;;;;;4937055;29;20441;-77
2021/06/02 10:26:10;;;;;;;8.57;3.17;;;27.30;74.60;;;;;;4937418;29;20421;-77
2021/06/02 10:28:36;;;;;;;4.70;2.10;;;27.80;73.10;;;;;;4937202;29;20426;-77
2021/06/02 10:31:05;;;;;;;2.60;1.60;;;28.00;74.90;;;;;;4937279;29;20472;-77
2021/06/02 10:33:31;;;;;;;1.70;1.57;;;28.50;72.40;;;;;;4936594;29;20460;-77
2021/06/02 10:35:59;;;;;;;2.63;1.77;;;28.30;70.20;;;;;;4937176;29;20430;-76
2021/06/02 10:38:27;;;;;;;2.60;1.90;;;28.70;71.20;;;;;;4937022;29;20484;-76
2021/06/02 10:40:54;;;;;;;2.10;1.87;;;29.40;66.70;;;;;;4936935;29;20867;-77
2021/06/02 10:43:23;;;;;;;3.67;1.63;;;29.20;65.80;;;;;;4937391;29;20497;-76
2021/06/02 10:46:23;;;;;;;1.53;1.43;;;29.00;64.30;;;;;;4936896;29;20420;-76
2021/06/02 10:48:52;;;;;;;1.83;1.70;;;28.90;60.20;;;;;;4896536;29;20619;-78
2021/06/02 10:51:30;;;;;;;1.87;1.70;;;29.40;61.60;;;;;;4917904;29;20425;-76
2021/06/02 10:54:13;;;;;;;4.20;1.80;;;29.60;59.60;;;;;;4917572;29;20839;-77
2021/06/02 10:56:42;;;;;;;3.00;1.77;;;29.90;61.10;;;;;;4932538;29;20796;-78
2021/06/02 10:59:29;;;;;;;2.00;1.80;;;30.90;60.30;;;;;;4917808;29;20425;-76
2021/06/02 11:02:11;;;;;;;2.30;1.90;;;31.10;60.20;;;;;;4916212;29;20462;-78
2021/06/02 11:04:56;;;;;;;3.40;2.13;;;30.50;57.40;;;;;;4917165;29;20805;-79
2021/06/02 11:07:29;;;;;;;2.07;1.73;;;30.70;57.10;;;;;;4918553;29;20935;-80
2021/06/02 11:10:06;;;;;;;3.57;1.70;;;30.70;56.10;;;;;;4917606;29;20415;-79
2021/06/02 11:12:49;;;;;;;2.03;1.67;;;30.50;56.30;;;;;;4917362;29;20473;-79
2021/06/02 11:15:34;;;;;;;2.57;1.63;;;31.00;58.20;;;;;;4917448;29;20502;-79
2021/06/02 11:18:12;;;;;;;2.73;1.70;;;30.60;55.60;;;;;;4916701;29;20481;-78
2021/06/02 11:20:55;;;;;;;3.87;1.70;;;30.90;56.10;;;;;;4917402;29;20429;-77
2021/06/02 11:23:28;;;;;;;4.60;1.93;;;31.10;54.50;;;;;;4916949;29;20493;-76
2021/06/02 11:26:14;;;;;;;2.53;1.60;;;31.10;54.90;;;;;;4917584;29;20971;-77
2021/06/02 11:28:45;;;;;;;2.60;1.90;;;31.70;54.60;;;;;;4916911;29;20919;-76
2021/06/02 11:31:31;;;;;;;2.30;1.67;;;32.30;53.30;;;;;;4917613;29;20422;-76
2021/06/02 11:34:25;;;;;;;2.70;2.10;;;32.80;53.90;;;;;;4916683;29;20545;-78
2021/06/02 11:37:07;;;;;;;4.13;1.80;;;32.70;51.50;;;;;;4917306;29;20833;-76
2021/06/02 11:39:36;;;;;;;2.40;1.83;;;32.40;52.00;;;;;;4931835;29;20421;-76
2021/06/02 11:42:06;;;;;;;3.63;1.93;;;32.40;50.40;;;;;;4917202;29;20469;-78
2021/06/02 11:44:34;;;;;;;1.90;1.30;;;32.70;50.80;;;;;;4916996;29;20453;-78
2021/06/02 11:47:01;;;;;;;1.87;1.60;;;32.80;49.00;;;;;;4917553;29;20427;-76
2021/06/02 11:49:28;;;;;;;4.17;1.80;;;32.60;47.60;;;;;;4915776;29;20778;-78
2021/06/02 11:51:56;;;;;;;1.90;1.80;;;33.30;47.10;;;;;;4922485;29;20425;-76
2021/06/02 11:54:25;;;;;;;4.63;1.93;;;33.40;50.30;;;;;;4935804;29;20481;-76
2021/06/02 11:56:51;;;;;;;3.40;1.70;;;33.70;48.00;;;;;;4935785;29;20433;-76
2021/06/02 11:59:17;;;;;;;3.77;1.80;;;33.10;47.50;;;;;;4935996;29;20430;-77
2021/06/02 12:01:42;;;;;;;2.50;1.73;;;33.70;48.20;;;;;;4935960;29;20973;-77
2021/06/02 12:04:08;;;;;;;3.43;1.90;;;33.80;47.10;;;;;;4935624;29;20237;-76
2021/06/02 12:06:35;;;;;;;2.33;1.60;;;33.60;46.90;;;;;;4935788;29;20182;-77
2021/06/02 12:09:10;;;;;;;3.10;2.00;;;33.80;45.60;;;;;;4935505;29;20177;-76
2021/06/02 12:11:37;;;;;;;2.70;1.70;;;34.40;44.80;;;;;;4935884;29;20417;-76
2021/06/02 12:14:03;;;;;;;1.77;1.50;;;34.40;43.60;;;;;;4935451;29;20527;-76
2021/06/02 12:16:28;;;;;;;2.00;1.80;;;34.50;46.30;;;;;;4935119;29;20476;-76
2021/06/02 12:18:59;;;;;;;3.20;1.87;;;34.60;44.80;;;;;;4935292;29;20244;-76
2021/06/02 12:21:27;;;;;;;2.60;1.87;;;34.30;45.60;;;;;;4935346;29;20239;-76
2021/06/02 12:23:59;;;;;;;4.47;2.07;;;34.60;44.70;;;;;;4934969;29;20445;-76
2021/06/02 12:26:29;;;;;;;2.90;2.00;;;35.30;44.50;;;;;;4935265;29;20432;-77
2021/06/02 12:28:56;;;;;;;3.80;1.97;;;35.20;43.40;;;;;;4935891;29;20421;-76
2021/06/02 12:31:45;;;;;;;4.40;1.73;;;35.70;43.60;;;;;;4939476;29;20815;-76
2021/06/02 12:34:17;;;;;;;4.30;1.70;;;35.90;44.30;;;;;;4937516;29;20491;-77
2021/06/02 12:36:46;;;;;;;3.40;2.00;;;35.70;41.40;;;;;;4920601;29;20787;-77
2021/06/02 12:39:14;;;;;;;2.37;1.87;;;35.50;44.30;;;;;;4920184;29;20517;-77
2021/06/02 12:41:43;;;;;;;3.30;1.53;;;35.90;43.30;;;;;;4920204;29;20457;-77
2021/06/02 12:44:08;;;;;;;3.03;2.03;;;35.40;41.60;;;;;;4919864;29;20982;-76
2021/06/02 12:46:34;;;;;;;2.87;1.70;;;35.80;43.30;;;;;;4920101;29;20426;-77
2021/06/02 12:49:08;;;;;;;4.00;2.13;;;35.60;44.50;;;;;;4920015;29;20186;-77
2021/06/02 12:51:35;;;;;;;2.17;1.60;;;36.00;42.60;;;;;;4920158;29;20190;-76
2021/06/02 12:54:01;;;;;;;2.20;1.97;;;35.80;43.00;;;;;;4922191;29;20445;-76
2021/06/02 12:56:27;;;;;;;3.30;2.00;;;36.00;43.00;;;;;;4939072;29;20789;-76
2021/06/02 12:58:58;;;;;;;2.90;1.90;;;36.10;42.90;;;;;;4937209;29;20449;-76
2021/06/02 13:01:29;;;;;;;2.87;2.07;;;36.30;41.50;;;;;;4938853;29;20616;-76
2021/06/02 13:03:57;;;;;;;3.93;1.97;;;36.10;42.90;;;;;;4938374;29;20504;-76
2021/06/02 13:06:25;;;;;;;4.93;2.23;;;36.80;41.80;;;;;;4938565;29;20421;-76
2021/06/02 13:08:51;;;;;;;2.87;2.00;;;36.50;40.80;;;;;;4938577;29;20423;-76
2021/06/02 13:11:27;;;;;;;1.80;1.70;;;36.90;41.80;;;;;;4938423;29;20429;-77
2021/06/02 13:13:55;;;;;;;2.90;1.80;;;37.20;42.00;;;;;;4938039;29;20829;-76
2021/06/02 13:16:21;;;;;;;2.20;1.60;;;36.70;42.20;;;;;;4938479;29;20516;-76
2021/06/02 13:19:07;;;;;;;2.27;1.73;;;37.00;39.70;;;;;;4938395;29;20449;-77
2021/06/02 13:21:35;;;;;;;2.03;1.83;;;37.10;37.10;;;;;;4937945;29;20556;-77
2021/06/02 13:24:08;;;;;;;2.00;1.80;;;36.50;40.10;;;;;;4937682;29;20847;-76
2021/06/02 13:26:33;;;;;;;2.57;1.57;;;36.30;40.80;;;;;;4937963;29;20822;-77
2021/06/02 13:28:59;;;;;;;3.27;1.60;;;36.50;38.90;;;;;;4938426;29;20422;-76